sensor_id;sensor_type;location;lat;lon;timestamp;P1;durP1;ratioP1;P2;durP2;ratioP2
77158;SDS011;66129;45.890;13.714;2023-02-01T00:02:23;26.05;;;12.50;;
77158;SDS011;66129;45.890;13.714;2023-02-01T00:04:48;20.38;;;10.77;;
77158;SDS011;66129;45.890;13.714;2023-02-01T00:07:14;29.80;;;13.73;;
77158;SDS011;66129;45.890;13.714;2023-02-01T00:09:39;26.55;;;11.35;;
77158;SDS011;66129;45.890;13.714;2023-02-01T00:12:05;24.65;;;12.00;;
77158;SDS011;66129;45.890;13.714;2023-02-01T00:14:30;23.23;;;11.50;;
77158;SDS011;66129;45.890;13.714;2023-02-01T00:17:03;30.17;;;11.20;;
77158;SDS011;66129;45.890;13.714;2023-02-01T00:19:32;22.70;;;12.00;;
77158;SDS011;66129;45.890;13.714;2023-02-01T00:32:04;21.60;;;11.75;;
77158;SDS011;66129;45.890;13.714;2023-02-01T00:34:29;20.05;;;10.85;;
77158;SDS011;66129;45.890;13.714;2023-02-01T00:36:55;25.42;;;11.95;;
77158;SDS011;66129;45.890;13.714;2023-02-01T00:39:20;24.08;;;10.60;;
77158;SDS011;66129;45.890;13.714;2023-02-01T00:41:46;19.10;;;9.52;;
77158;SDS011;66129;45.890;13.714;2023-02-01T00:44:11;23.85;;;12.32;;
77158;SDS011;66129;45.890;13.714;2023-02-01T00:46:37;29.00;;;11.85;;
77158;SDS011;66129;45.890;13.714;2023-02-01T00:49:02;24.17;;;10.48;;
77158;SDS011;66129;45.890;13.714;2023-02-01T00:51:28;20.92;;;10.73;;
77158;SDS011;66129;45.890;13.714;2023-02-01T00:53:55;39.78;;;17.58;;
77158;SDS011;66129;45.890;13.714;2023-02-01T00:56:21;32.25;;;15.02;;
77158;SDS011;66129;45.890;13.714;2023-02-01T00:58:46;35.58;;;14.38;;
77158;SDS011;66129;45.890;13.714;2023-02-01T01:01:16;30.00;;;13.27;;
77158;SDS011;66129;45.890;13.714;2023-02-01T01:03:43;28.65;;;12.20;;
77158;SDS011;66129;45.890;13.714;2023-02-01T01:06:12;28.15;;;12.50;;
77158;SDS011;66129;45.890;13.714;2023-02-01T01:08:39;30.45;;;14.00;;
77158;SDS011;66129;45.890;13.714;2023-02-01T01:11:13;26.73;;;11.63;;
77158;SDS011;66129;45.890;13.714;2023-02-01T01:13:40;23.52;;;12.65;;
77158;SDS011;66129;45.890;13.714;2023-02-01T01:16:07;26.23;;;13.05;;
77158;SDS011;66129;45.890;13.714;2023-02-01T01:18:34;31.75;;;12.73;;
77158;SDS011;66129;45.890;13.714;2023-02-01T01:21:00;29.73;;;14.52;;
77158;SDS011;66129;45.890;13.714;2023-02-01T01:23:26;27.10;;;13.48;;
77158;SDS011;66129;45.890;13.714;2023-02-01T01:25:53;27.60;;;13.73;;
77158;SDS011;66129;45.890;13.714;2023-02-01T01:28:18;29.65;;;13.27;;
77158;SDS011;66129;45.890;13.714;2023-02-01T01:30:44;25.70;;;12.63;;
77158;SDS011;66129;45.890;13.714;2023-02-01T01:33:09;26.63;;;12.27;;
77158;SDS011;66129;45.890;13.714;2023-02-01T01:35:35;25.10;;;12.60;;
77158;SDS011;66129;45.890;13.714;2023-02-01T01:38:01;23.55;;;12.10;;
77158;SDS011;66129;45.890;13.714;2023-02-01T01:40:27;33.67;;;13.32;;
77158;SDS011;66129;45.890;13.714;2023-02-01T01:42:54;24.98;;;11.77;;
77158;SDS011;66129;45.890;13.714;2023-02-01T01:47:58;25.95;;;12.32;;
77158;SDS011;66129;45.890;13.714;2023-02-01T01:50:37;28.13;;;13.30;;
77158;SDS011;66129;45.890;13.714;2023-02-01T01:53:19;26.98;;;12.32;;
77158;SDS011;66129;45.890;13.714;2023-02-01T01:55:48;29.65;;;13.05;;
77158;SDS011;66129;45.890;13.714;2023-02-01T01:58:17;25.42;;;12.18;;
77158;SDS011;66129;45.890;13.714;2023-02-01T02:00:46;36.72;;;14.50;;
77158;SDS011;66129;45.890;13.714;2023-02-01T02:03:19;22.15;;;11.90;;
77158;SDS011;66129;45.890;13.714;2023-02-01T02:05:48;26.63;;;13.35;;
77158;SDS011;66129;45.890;13.714;2023-02-01T02:08:15;28.65;;;13.48;;
77158;SDS011;66129;45.890;13.714;2023-02-01T02:10:43;23.40;;;11.60;;
77158;SDS011;66129;45.890;13.714;2023-02-01T03:14:57;24.02;;;12.32;;
77158;SDS011;66129;45.890;13.714;2023-02-01T03:17:30;18.98;;;11.20;;
77158;SDS011;66129;45.890;13.714;2023-02-01T03:20:01;25.65;;;12.65;;
77158;SDS011;66129;45.890;13.714;2023-02-01T03:22:28;29.35;;;14.50;;
77158;SDS011;66129;45.890;13.714;2023-02-01T03:25:01;31.27;;;14.75;;
77158;SDS011;66129;45.890;13.714;2023-02-01T03:27:32;32.97;;;14.10;;
77158;SDS011;66129;45.890;13.714;2023-02-01T03:32:48;24.10;;;13.00;;
77158;SDS011;66129;45.890;13.714;2023-02-01T03:38:08;26.90;;;13.18;;
77158;SDS011;66129;45.890;13.714;2023-02-01T03:40:45;32.05;;;14.00;;
77158;SDS011;66129;45.890;13.714;2023-02-01T03:43:18;29.20;;;12.45;;
77158;SDS011;66129;45.890;13.714;2023-02-01T03:45:46;31.35;;;12.98;;
77158;SDS011;66129;45.890;13.714;2023-02-01T03:48:17;27.20;;;12.38;;
77158;SDS011;66129;45.890;13.714;2023-02-01T03:50:44;30.58;;;14.02;;
77158;SDS011;66129;45.890;13.714;2023-02-01T03:53:16;33.45;;;13.20;;
77158;SDS011;66129;45.890;13.714;2023-02-01T03:55:44;28.50;;;13.20;;
77158;SDS011;66129;45.890;13.714;2023-02-01T03:58:14;25.75;;;13.82;;
77158;SDS011;66129;45.890;13.714;2023-02-01T04:00:55;24.27;;;12.55;;
77158;SDS011;66129;45.890;13.714;2023-02-01T04:03:23;31.35;;;13.15;;
77158;SDS011;66129;45.890;13.714;2023-02-01T04:05:50;30.80;;;13.20;;
77158;SDS011;66129;45.890;13.714;2023-02-01T04:08:17;26.23;;;12.95;;
77158;SDS011;66129;45.890;13.714;2023-02-01T04:10:43;27.67;;;12.93;;
77158;SDS011;66129;45.890;13.714;2023-02-01T04:13:09;31.80;;;13.43;;
77158;SDS011;66129;45.890;13.714;2023-02-01T04:15:35;29.92;;;14.98;;
77158;SDS011;66129;45.890;13.714;2023-02-01T04:18:00;28.80;;;12.57;;
77158;SDS011;66129;45.890;13.714;2023-02-01T04:20:26;24.02;;;12.80;;
77158;SDS011;66129;45.890;13.714;2023-02-01T04:22:52;29.30;;;13.05;;
77158;SDS011;66129;45.890;13.714;2023-02-01T04:25:17;24.20;;;10.95;;
77158;SDS011;66129;45.890;13.714;2023-02-01T04:27:43;27.52;;;14.00;;
77158;SDS011;66129;45.890;13.714;2023-02-01T04:30:09;29.83;;;12.68;;
77158;SDS011;66129;45.890;13.714;2023-02-01T04:32:36;25.38;;;11.95;;
77158;SDS011;66129;45.890;13.714;2023-02-01T04:35:02;27.30;;;13.65;;
77158;SDS011;66129;45.890;13.714;2023-02-01T04:37:28;28.55;;;13.18;;
77158;SDS011;66129;45.890;13.714;2023-02-01T04:39:54;24.95;;;11.77;;
77158;SDS011;66129;45.890;13.714;2023-02-01T04:42:19;26.92;;;13.18;;
77158;SDS011;66129;45.890;13.714;2023-02-01T04:44:45;28.95;;;13.35;;
77158;SDS011;66129;45.890;13.714;2023-02-01T04:47:11;28.35;;;13.93;;
77158;SDS011;66129;45.890;13.714;2023-02-01T04:49:36;29.25;;;13.85;;
77158;SDS011;66129;45.890;13.714;2023-02-01T04:52:02;28.85;;;13.65;;
77158;SDS011;66129;45.890;13.714;2023-02-01T04:54:27;25.60;;;11.38;;
77158;SDS011;66129;45.890;13.714;2023-02-01T04:56:53;26.98;;;12.40;;
77158;SDS011;66129;45.890;13.714;2023-02-01T04:59:18;30.20;;;11.95;;
77158;SDS011;66129;45.890;13.714;2023-02-01T05:01:44;31.33;;;13.90;;
77158;SDS011;66129;45.890;13.714;2023-02-01T05:04:09;20.50;;;11.98;;
77158;SDS011;66129;45.890;13.714;2023-02-01T05:06:35;26.05;;;12.07;;
77158;SDS011;66129;45.890;13.714;2023-02-01T05:09:00;24.58;;;12.10;;
77158;SDS011;66129;45.890;13.714;2023-02-01T05:11:26;24.73;;;11.85;;
77158;SDS011;66129;45.890;13.714;2023-02-01T05:14:10;20.05;;;10.60;;
77158;SDS011;66129;45.890;13.714;2023-02-01T05:16:35;21.55;;;11.23;;
77158;SDS011;66129;45.890;13.714;2023-02-01T05:19:01;20.73;;;9.75;;
77158;SDS011;66129;45.890;13.714;2023-02-01T05:21:26;27.92;;;11.38;;
77158;SDS011;66129;45.890;13.714;2023-02-01T05:23:52;34.17;;;15.07;;
77158;SDS011;66129;45.890;13.714;2023-02-01T05:26:38;22.92;;;10.60;;
77158;SDS011;66129;45.890;13.714;2023-02-01T05:29:06;27.02;;;13.07;;
77158;SDS011;66129;45.890;13.714;2023-02-01T05:31:32;31.73;;;15.75;;
77158;SDS011;66129;45.890;13.714;2023-02-01T05:33:58;26.55;;;12.68;;
77158;SDS011;66129;45.890;13.714;2023-02-01T05:36:23;29.13;;;14.70;;
77158;SDS011;66129;45.890;13.714;2023-02-01T05:38:49;28.75;;;16.10;;
77158;SDS011;66129;45.890;13.714;2023-02-01T05:41:15;26.42;;;14.52;;
77158;SDS011;66129;45.890;13.714;2023-02-01T05:43:40;27.00;;;12.70;;
77158;SDS011;66129;45.890;13.714;2023-02-01T05:46:06;27.67;;;13.02;;
77158;SDS011;66129;45.890;13.714;2023-02-01T05:48:31;42.95;;;23.23;;
77158;SDS011;66129;45.890;13.714;2023-02-01T05:50:57;22.52;;;13.57;;
77158;SDS011;66129;45.890;13.714;2023-02-01T05:53:22;35.55;;;18.98;;
77158;SDS011;66129;45.890;13.714;2023-02-01T05:55:48;31.30;;;17.25;;
77158;SDS011;66129;45.890;13.714;2023-02-01T05:58:13;26.25;;;14.25;;
77158;SDS011;66129;45.890;13.714;2023-02-01T06:00:39;31.02;;;15.35;;
77158;SDS011;66129;45.890;13.714;2023-02-01T06:03:05;29.25;;;15.00;;
77158;SDS011;66129;45.890;13.714;2023-02-01T06:05:31;28.33;;;16.70;;
77158;SDS011;66129;45.890;13.714;2023-02-01T06:07:56;23.63;;;13.50;;
77158;SDS011;66129;45.890;13.714;2023-02-01T06:10:22;28.00;;;14.32;;
77158;SDS011;66129;45.890;13.714;2023-02-01T06:12:47;24.58;;;14.57;;
77158;SDS011;66129;45.890;13.714;2023-02-01T06:15:13;31.88;;;17.17;;
77158;SDS011;66129;45.890;13.714;2023-02-01T06:17:43;29.40;;;15.75;;
77158;SDS011;66129;45.890;13.714;2023-02-01T06:20:10;26.23;;;14.75;;
77158;SDS011;66129;45.890;13.714;2023-02-01T06:22:37;28.23;;;15.35;;
77158;SDS011;66129;45.890;13.714;2023-02-01T06:25:03;24.50;;;12.25;;
77158;SDS011;66129;45.890;13.714;2023-02-01T06:27:30;30.67;;;13.25;;
77158;SDS011;66129;45.890;13.714;2023-02-01T06:29:56;27.17;;;13.48;;
77158;SDS011;66129;45.890;13.714;2023-02-01T06:32:22;33.95;;;13.82;;
77158;SDS011;66129;45.890;13.714;2023-02-01T06:34:48;29.58;;;14.27;;
77158;SDS011;66129;45.890;13.714;2023-02-01T06:37:14;28.38;;;12.23;;
77158;SDS011;66129;45.890;13.714;2023-02-01T06:39:39;35.63;;;15.02;;
77158;SDS011;66129;45.890;13.714;2023-02-01T06:42:05;26.40;;;12.63;;
77158;SDS011;66129;45.890;13.714;2023-02-01T06:44:30;23.38;;;12.45;;
77158;SDS011;66129;45.890;13.714;2023-02-01T06:46:56;25.60;;;12.00;;
77158;SDS011;66129;45.890;13.714;2023-02-01T06:49:21;22.42;;;12.82;;
77158;SDS011;66129;45.890;13.714;2023-02-01T06:51:47;30.15;;;15.35;;
77158;SDS011;66129;45.890;13.714;2023-02-01T06:54:12;34.75;;;17.75;;
77158;SDS011;66129;45.890;13.714;2023-02-01T06:56:38;33.72;;;16.05;;
77158;SDS011;66129;45.890;13.714;2023-02-01T06:59:04;32.25;;;14.18;;
77158;SDS011;66129;45.890;13.714;2023-02-01T07:01:30;28.73;;;12.55;;
77158;SDS011;66129;45.890;13.714;2023-02-01T07:03:56;27.95;;;13.88;;
77158;SDS011;66129;45.890;13.714;2023-02-01T07:06:21;32.88;;;15.18;;
77158;SDS011;66129;45.890;13.714;2023-02-01T07:08:47;38.50;;;17.25;;
77158;SDS011;66129;45.890;13.714;2023-02-01T07:11:13;30.75;;;14.63;;
77158;SDS011;66129;45.890;13.714;2023-02-01T07:13:40;29.42;;;14.93;;
77158;SDS011;66129;45.890;13.714;2023-02-01T07:16:07;29.95;;;16.20;;
77158;SDS011;66129;45.890;13.714;2023-02-01T07:18:36;26.08;;;15.93;;
77158;SDS011;66129;45.890;13.714;2023-02-01T07:21:02;32.83;;;14.23;;
77158;SDS011;66129;45.890;13.714;2023-02-01T07:23:28;124.30;;;74.53;;
77158;SDS011;66129;45.890;13.714;2023-02-01T07:25:57;39.30;;;18.80;;
77158;SDS011;66129;45.890;13.714;2023-02-01T07:28:24;32.75;;;17.08;;
77158;SDS011;66129;45.890;13.714;2023-02-01T07:30:50;33.85;;;16.90;;
77158;SDS011;66129;45.890;13.714;2023-02-01T07:33:19;28.73;;;15.52;;
77158;SDS011;66129;45.890;13.714;2023-02-01T07:35:47;30.50;;;15.73;;
77158;SDS011;66129;45.890;13.714;2023-02-01T07:38:13;28.90;;;14.30;;
77158;SDS011;66129;45.890;13.714;2023-02-01T07:40:39;33.47;;;14.15;;
77158;SDS011;66129;45.890;13.714;2023-02-01T07:43:05;36.00;;;16.17;;
77158;SDS011;66129;45.890;13.714;2023-02-01T07:45:33;36.25;;;17.58;;
77158;SDS011;66129;45.890;13.714;2023-02-01T07:48:02;34.85;;;16.45;;
77158;SDS011;66129;45.890;13.714;2023-02-01T07:50:28;34.35;;;17.98;;
77158;SDS011;66129;45.890;13.714;2023-02-01T07:52:54;32.63;;;16.33;;
77158;SDS011;66129;45.890;13.714;2023-02-01T07:55:19;40.03;;;20.52;;
77158;SDS011;66129;45.890;13.714;2023-02-01T07:57:46;37.45;;;18.92;;
77158;SDS011;66129;45.890;13.714;2023-02-01T08:00:12;44.47;;;19.67;;
77158;SDS011;66129;45.890;13.714;2023-02-01T08:02:59;44.00;;;19.75;;
77158;SDS011;66129;45.890;13.714;2023-02-01T08:05:25;41.38;;;17.80;;
77158;SDS011;66129;45.890;13.714;2023-02-01T08:07:51;39.92;;;20.20;;
77158;SDS011;66129;45.890;13.714;2023-02-01T08:10:17;30.55;;;16.90;;
77158;SDS011;66129;45.890;13.714;2023-02-01T08:12:44;35.50;;;18.20;;
77158;SDS011;66129;45.890;13.714;2023-02-01T08:15:17;33.97;;;16.98;;
77158;SDS011;66129;45.890;13.714;2023-02-01T08:17:49;32.95;;;16.80;;
77158;SDS011;66129;45.890;13.714;2023-02-01T08:20:16;37.88;;;16.95;;
77158;SDS011;66129;45.890;13.714;2023-02-01T08:22:42;30.92;;;17.25;;
77158;SDS011;66129;45.890;13.714;2023-02-01T08:25:08;36.50;;;19.13;;
77158;SDS011;66129;45.890;13.714;2023-02-01T08:27:34;38.70;;;19.52;;
77158;SDS011;66129;45.890;13.714;2023-02-01T08:29:59;36.22;;;18.13;;
77158;SDS011;66129;45.890;13.714;2023-02-01T08:32:26;32.50;;;16.52;;
77158;SDS011;66129;45.890;13.714;2023-02-01T08:34:52;33.00;;;14.68;;
77158;SDS011;66129;45.890;13.714;2023-02-01T08:37:17;29.35;;;15.23;;
77158;SDS011;66129;45.890;13.714;2023-02-01T08:39:43;29.48;;;14.15;;
77158;SDS011;66129;45.890;13.714;2023-02-01T08:42:10;33.95;;;16.70;;
77158;SDS011;66129;45.890;13.714;2023-02-01T08:44:55;26.70;;;14.25;;
77158;SDS011;66129;45.890;13.714;2023-02-01T08:47:21;33.42;;;16.48;;
77158;SDS011;66129;45.890;13.714;2023-02-01T08:49:46;30.45;;;16.13;;
77158;SDS011;66129;45.890;13.714;2023-02-01T08:52:12;30.88;;;14.15;;
77158;SDS011;66129;45.890;13.714;2023-02-01T08:54:37;29.58;;;15.68;;
77158;SDS011;66129;45.890;13.714;2023-02-01T08:57:05;31.95;;;14.85;;
77158;SDS011;66129;45.890;13.714;2023-02-01T08:59:30;37.03;;;18.85;;
77158;SDS011;66129;45.890;13.714;2023-02-01T09:01:56;34.72;;;16.67;;
77158;SDS011;66129;45.890;13.714;2023-02-01T09:04:21;30.02;;;16.02;;
77158;SDS011;66129;45.890;13.714;2023-02-01T09:06:47;39.70;;;18.67;;
77158;SDS011;66129;45.890;13.714;2023-02-01T09:09:12;40.97;;;18.08;;
77158;SDS011;66129;45.890;13.714;2023-02-01T09:11:38;30.45;;;16.17;;
77158;SDS011;66129;45.890;13.714;2023-02-01T09:14:03;37.50;;;20.17;;
77158;SDS011;66129;45.890;13.714;2023-02-01T09:16:29;36.13;;;16.52;;
77158;SDS011;66129;45.890;13.714;2023-02-01T09:18:55;48.03;;;20.02;;
77158;SDS011;66129;45.890;13.714;2023-02-01T09:21:20;83.65;;;30.40;;
77158;SDS011;66129;45.890;13.714;2023-02-01T09:23:46;100.45;;;34.17;;
77158;SDS011;66129;45.890;13.714;2023-02-01T09:26:13;148.50;;;42.83;;
77158;SDS011;66129;45.890;13.714;2023-02-01T09:28:39;110.55;;;35.35;;
77158;SDS011;66129;45.890;13.714;2023-02-01T09:31:05;29.40;;;15.50;;
77158;SDS011;66129;45.890;13.714;2023-02-01T09:33:30;30.98;;;15.52;;
77158;SDS011;66129;45.890;13.714;2023-02-01T09:35:59;46.78;;;19.20;;
77158;SDS011;66129;45.890;13.714;2023-02-01T09:38:26;44.33;;;22.63;;
77158;SDS011;66129;45.890;13.714;2023-02-01T09:40:52;29.90;;;14.45;;
77158;SDS011;66129;45.890;13.714;2023-02-01T09:43:31;31.90;;;16.25;;
77158;SDS011;66129;45.890;13.714;2023-02-01T09:48:48;34.78;;;17.40;;
77158;SDS011;66129;45.890;13.714;2023-02-01T09:51:22;34.72;;;17.30;;
77158;SDS011;66129;45.890;13.714;2023-02-01T09:53:59;30.83;;;17.48;;
77158;SDS011;66129;45.890;13.714;2023-02-01T09:56:44;34.58;;;17.08;;
77158;SDS011;66129;45.890;13.714;2023-02-01T10:01:54;33.00;;;17.92;;
77158;SDS011;66129;45.890;13.714;2023-02-01T10:04:19;30.45;;;16.63;;
77158;SDS011;66129;45.890;13.714;2023-02-01T10:07:01;31.95;;;16.05;;
77158;SDS011;66129;45.890;13.714;2023-02-01T10:12:28;32.83;;;16.23;;
77158;SDS011;66129;45.890;13.714;2023-02-01T10:23:58;32.15;;;16.63;;
77158;SDS011;66129;45.890;13.714;2023-02-01T10:26:27;31.98;;;17.10;;
77158;SDS011;66129;45.890;13.714;2023-02-01T10:29:00;33.25;;;17.45;;
77158;SDS011;66129;45.890;13.714;2023-02-01T10:31:28;35.15;;;17.63;;
77158;SDS011;66129;45.890;13.714;2023-02-01T10:33:57;34.30;;;16.85;;
77158;SDS011;66129;45.890;13.714;2023-02-01T10:36:34;29.48;;;16.52;;
77158;SDS011;66129;45.890;13.714;2023-02-01T10:39:05;33.88;;;18.42;;
77158;SDS011;66129;45.890;13.714;2023-02-01T10:41:35;34.78;;;22.15;;
77158;SDS011;66129;45.890;13.714;2023-02-01T10:44:05;33.45;;;17.05;;
77158;SDS011;66129;45.890;13.714;2023-02-01T10:46:36;34.78;;;17.70;;
77158;SDS011;66129;45.890;13.714;2023-02-01T10:49:02;29.55;;;16.90;;
77158;SDS011;66129;45.890;13.714;2023-02-01T10:51:30;40.15;;;19.48;;
77158;SDS011;66129;45.890;13.714;2023-02-01T10:54:17;38.60;;;19.58;;
77158;SDS011;66129;45.890;13.714;2023-02-01T10:56:46;29.42;;;16.38;;
77158;SDS011;66129;45.890;13.714;2023-02-01T10:59:14;33.53;;;19.27;;
77158;SDS011;66129;45.890;13.714;2023-02-01T11:01:42;29.35;;;15.70;;
77158;SDS011;66129;45.890;13.714;2023-02-01T11:04:13;32.33;;;18.70;;
77158;SDS011;66129;45.890;13.714;2023-02-01T11:06:42;31.27;;;16.90;;
77158;SDS011;66129;45.890;13.714;2023-02-01T11:14:14;31.45;;;18.13;;
77158;SDS011;66129;45.890;13.714;2023-02-01T11:17:45;33.67;;;18.10;;
77158;SDS011;66129;45.890;13.714;2023-02-01T11:19:39;47.35;;;22.70;;
77158;SDS011;66129;45.890;13.714;2023-02-01T11:22:09;34.17;;;18.45;;
77158;SDS011;66129;45.890;13.714;2023-02-01T11:24:37;43.50;;;21.33;;
77158;SDS011;66129;45.890;13.714;2023-02-01T11:27:05;55.40;;;24.77;;
77158;SDS011;66129;45.890;13.714;2023-02-01T11:29:41;55.25;;;23.70;;
77158;SDS011;66129;45.890;13.714;2023-02-01T11:32:09;37.28;;;20.33;;
77158;SDS011;66129;45.890;13.714;2023-02-01T11:34:38;69.22;;;30.00;;
77158;SDS011;66129;45.890;13.714;2023-02-01T11:37:04;51.38;;;24.33;;
77158;SDS011;66129;45.890;13.714;2023-02-01T11:39:38;39.53;;;20.45;;
77158;SDS011;66129;45.890;13.714;2023-02-01T11:42:05;55.90;;;23.63;;
77158;SDS011;66129;45.890;13.714;2023-02-01T11:44:39;57.60;;;25.58;;
77158;SDS011;66129;45.890;13.714;2023-02-01T11:47:26;36.78;;;18.40;;
77158;SDS011;66129;45.890;13.714;2023-02-01T11:50:00;33.03;;;18.05;;
77158;SDS011;66129;45.890;13.714;2023-02-01T11:55:14;62.92;;;29.13;;
77158;SDS011;66129;45.890;13.714;2023-02-01T12:07:19;33.60;;;19.13;;
77158;SDS011;66129;45.890;13.714;2023-02-01T12:09:27;33.35;;;18.13;;
77158;SDS011;66129;45.890;13.714;2023-02-01T12:28:34;41.00;;;22.75;;
77158;SDS011;66129;45.890;13.714;2023-02-01T12:36:46;41.10;;;21.98;;
77158;SDS011;66129;45.890;13.714;2023-02-01T12:39:24;35.33;;;18.55;;
77158;SDS011;66129;45.890;13.714;2023-02-01T12:47:43;29.08;;;17.13;;
77158;SDS011;66129;45.890;13.714;2023-02-01T12:52:50;30.15;;;16.95;;
77158;SDS011;66129;45.890;13.714;2023-02-01T12:58:09;26.17;;;14.18;;
77158;SDS011;66129;45.890;13.714;2023-02-01T13:01:12;30.98;;;15.80;;
77158;SDS011;66129;45.890;13.714;2023-02-01T13:04:02;30.33;;;15.85;;
77158;SDS011;66129;45.890;13.714;2023-02-01T13:06:47;31.45;;;18.13;;
77158;SDS011;66129;45.890;13.714;2023-02-01T13:11:55;35.35;;;18.17;;
77158;SDS011;66129;45.890;13.714;2023-02-01T13:14:44;32.22;;;16.35;;
77158;SDS011;66129;45.890;13.714;2023-02-01T13:17:19;34.22;;;19.75;;
77158;SDS011;66129;45.890;13.714;2023-02-01T13:20:06;48.35;;;22.88;;
77158;SDS011;66129;45.890;13.714;2023-02-01T13:22:44;28.45;;;14.73;;
77158;SDS011;66129;45.890;13.714;2023-02-01T13:25:15;25.15;;;14.13;;
77158;SDS011;66129;45.890;13.714;2023-02-01T13:27:44;28.55;;;14.07;;
77158;SDS011;66129;45.890;13.714;2023-02-01T13:30:18;24.88;;;13.63;;
77158;SDS011;66129;45.890;13.714;2023-02-01T13:44:05;26.83;;;15.48;;
77158;SDS011;66129;45.890;13.714;2023-02-01T13:46:41;32.58;;;17.05;;
77158;SDS011;66129;45.890;13.714;2023-02-01T13:49:25;28.42;;;14.65;;
77158;SDS011;66129;45.890;13.714;2023-02-01T13:51:54;26.80;;;14.93;;
77158;SDS011;66129;45.890;13.714;2023-02-01T13:54:26;28.75;;;15.27;;
77158;SDS011;66129;45.890;13.714;2023-02-01T13:56:52;25.27;;;14.02;;
77158;SDS011;66129;45.890;13.714;2023-02-01T14:05:04;33.28;;;16.48;;
77158;SDS011;66129;45.890;13.714;2023-02-01T14:07:33;33.85;;;19.23;;
77158;SDS011;66129;45.890;13.714;2023-02-01T14:09:58;27.40;;;16.23;;
77158;SDS011;66129;45.890;13.714;2023-02-01T14:13:12;29.40;;;16.65;;
77158;SDS011;66129;45.890;13.714;2023-02-01T14:16:10;31.98;;;15.50;;
77158;SDS011;66129;45.890;13.714;2023-02-01T14:26:26;34.10;;;18.05;;
77158;SDS011;66129;45.890;13.714;2023-02-01T14:29:03;35.05;;;19.88;;
77158;SDS011;66129;45.890;13.714;2023-02-01T14:31:37;32.55;;;17.52;;
77158;SDS011;66129;45.890;13.714;2023-02-01T14:34:12;31.73;;;18.60;;
77158;SDS011;66129;45.890;13.714;2023-02-01T14:36:43;34.03;;;20.02;;
77158;SDS011;66129;45.890;13.714;2023-02-01T14:40:14;32.05;;;18.25;;
77158;SDS011;66129;45.890;13.714;2023-02-01T14:44:50;28.35;;;15.80;;
77158;SDS011;66129;45.890;13.714;2023-02-01T14:52:40;32.83;;;17.77;;
77158;SDS011;66129;45.890;13.714;2023-02-01T14:55:16;32.47;;;16.77;;
77158;SDS011;66129;45.890;13.714;2023-02-01T14:57:47;37.38;;;18.40;;
77158;SDS011;66129;45.890;13.714;2023-02-01T15:00:23;36.67;;;19.27;;
77158;SDS011;66129;45.890;13.714;2023-02-01T15:02:54;37.25;;;18.10;;
77158;SDS011;66129;45.890;13.714;2023-02-01T15:05:38;34.20;;;16.67;;
77158;SDS011;66129;45.890;13.714;2023-02-01T15:08:05;39.30;;;20.30;;
77158;SDS011;66129;45.890;13.714;2023-02-01T15:10:40;35.55;;;19.95;;
77158;SDS011;66129;45.890;13.714;2023-02-01T15:13:18;43.63;;;22.63;;
77158;SDS011;66129;45.890;13.714;2023-02-01T15:18:36;60.65;;;31.98;;
77158;SDS011;66129;45.890;13.714;2023-02-01T15:21:02;61.15;;;30.27;;
77158;SDS011;66129;45.890;13.714;2023-02-01T15:23:30;59.53;;;30.98;;
77158;SDS011;66129;45.890;13.714;2023-02-01T15:25:56;51.97;;;26.92;;
77158;SDS011;66129;45.890;13.714;2023-02-01T15:28:22;54.33;;;28.80;;
77158;SDS011;66129;45.890;13.714;2023-02-01T15:30:57;55.67;;;29.15;;
77158;SDS011;66129;45.890;13.714;2023-02-01T15:33:29;58.08;;;32.28;;
77158;SDS011;66129;45.890;13.714;2023-02-01T15:38:31;70.88;;;35.88;;
77158;SDS011;66129;45.890;13.714;2023-02-01T15:41:09;73.03;;;35.78;;
77158;SDS011;66129;45.890;13.714;2023-02-01T15:46:22;81.15;;;39.60;;
77158;SDS011;66129;45.890;13.714;2023-02-01T15:48:55;77.25;;;38.30;;
77158;SDS011;66129;45.890;13.714;2023-02-01T15:51:22;87.72;;;41.13;;
77158;SDS011;66129;45.890;13.714;2023-02-01T15:54:00;73.68;;;39.00;;
77158;SDS011;66129;45.890;13.714;2023-02-01T15:56:33;81.82;;;41.88;;
77158;SDS011;66129;45.890;13.714;2023-02-01T15:59:01;78.13;;;40.92;;
77158;SDS011;66129;45.890;13.714;2023-02-01T16:01:29;81.63;;;40.88;;
77158;SDS011;66129;45.890;13.714;2023-02-01T16:06:56;83.28;;;43.45;;
77158;SDS011;66129;45.890;13.714;2023-02-01T16:09:34;86.55;;;44.42;;
77158;SDS011;66129;45.890;13.714;2023-02-01T16:12:19;216.13;;;89.32;;
77158;SDS011;66129;45.890;13.714;2023-02-01T16:14:53;162.13;;;70.22;;
77158;SDS011;66129;45.890;13.714;2023-02-01T16:17:19;112.10;;;55.50;;
77158;SDS011;66129;45.890;13.714;2023-02-01T16:19:45;99.93;;;52.35;;
77158;SDS011;66129;45.890;13.714;2023-02-01T16:22:10;105.95;;;55.00;;
77158;SDS011;66129;45.890;13.714;2023-02-01T16:24:36;88.03;;;46.47;;
77158;SDS011;66129;45.890;13.714;2023-02-01T16:27:01;82.78;;;43.05;;
77158;SDS011;66129;45.890;13.714;2023-02-01T16:29:28;76.90;;;42.67;;
77158;SDS011;66129;45.890;13.714;2023-02-01T16:31:53;77.40;;;38.97;;
77158;SDS011;66129;45.890;13.714;2023-02-01T16:34:19;81.57;;;40.50;;
77158;SDS011;66129;45.890;13.714;2023-02-01T16:36:48;80.97;;;39.65;;
77158;SDS011;66129;45.890;13.714;2023-02-01T16:39:20;78.03;;;39.42;;
77158;SDS011;66129;45.890;13.714;2023-02-01T16:41:46;78.20;;;38.38;;
77158;SDS011;66129;45.890;13.714;2023-02-01T16:44:12;91.63;;;45.50;;
77158;SDS011;66129;45.890;13.714;2023-02-01T16:46:41;84.28;;;43.80;;
77158;SDS011;66129;45.890;13.714;2023-02-01T16:49:20;110.38;;;51.78;;
77158;SDS011;66129;45.890;13.714;2023-02-01T16:51:47;101.22;;;48.17;;
77158;SDS011;66129;45.890;13.714;2023-02-01T16:54:17;241.02;;;107.85;;
77158;SDS011;66129;45.890;13.714;2023-02-01T16:56:43;101.05;;;48.53;;
77158;SDS011;66129;45.890;13.714;2023-02-01T16:59:10;97.72;;;47.30;;
77158;SDS011;66129;45.890;13.714;2023-02-01T17:01:36;82.68;;;39.50;;
77158;SDS011;66129;45.890;13.714;2023-02-01T17:04:06;93.40;;;45.22;;
77158;SDS011;66129;45.890;13.714;2023-02-01T17:06:32;79.05;;;40.05;;
77158;SDS011;66129;45.890;13.714;2023-02-01T17:09:02;84.03;;;42.05;;
77158;SDS011;66129;45.890;13.714;2023-02-01T17:11:29;86.28;;;42.40;;
77158;SDS011;66129;45.890;13.714;2023-02-01T17:13:56;84.32;;;43.03;;
77158;SDS011;66129;45.890;13.714;2023-02-01T17:18:50;229.55;;;116.80;;
77158;SDS011;66129;45.890;13.714;2023-02-01T17:21:20;106.65;;;54.83;;
77158;SDS011;66129;45.890;13.714;2023-02-01T17:23:46;114.07;;;56.03;;
77158;SDS011;66129;45.890;13.714;2023-02-01T17:26:12;109.85;;;54.13;;
77158;SDS011;66129;45.890;13.714;2023-02-01T17:28:37;287.02;;;97.47;;
77158;SDS011;66129;45.890;13.714;2023-02-01T17:31:03;140.48;;;64.47;;
77158;SDS011;66129;45.890;13.714;2023-02-01T17:33:30;220.80;;;84.28;;
77158;SDS011;66129;45.890;13.714;2023-02-01T17:35:59;136.98;;;67.10;;
77158;SDS011;66129;45.890;13.714;2023-02-01T17:38:25;149.57;;;74.63;;